Time;durP1;ratioP1;P1;durP2;ratioP2;P2;SDS_P1;SDS_P2;PMS_P1;PMS_P2;Temp;Humidity;BMP_temperature;BMP_pressure;BME280_temperature;BME280_humidity;BME280_pressure;Samples;Min_cycle;Max_cycle;Signal;HPM_P1;HPM_P2
2022/11/30 00:01:15;;;;;;;;;;;;;;;11.67;59.51;101129.00;4984600;28;7000;-77
2022/11/30 00:03:42;;;;;;;;;;;;;;;11.67;60.08;101126.44;4981068;28;8792;-76
2022/11/30 00:06:13;;;;;;;;;;;;;;;11.70;59.88;101136.91;4980721;28;6793;-74
2022/11/30 00:08:38;;;;;;;;;;;;;;;11.71;60.08;101130.97;4978187;28;7005;-77
2022/11/30 00:11:14;;;;;;;;;;;;;;;11.73;59.69;101138.72;4984111;28;7116;-77
2022/11/30 00:13:40;;;;;;;;;;;;;;;11.74;59.52;101133.69;4969605;28;6978;-77
2022/11/30 00:16:07;;;;;;;;;;;;;;;11.73;60.13;101133.59;4980584;28;7043;-77
2022/11/30 00:18:33;;;;;;;;;;;;;;;11.75;60.15;101137.16;4969684;28;7203;-77
2022/11/30 00:21:07;;;;;;;;;;;;;;;11.74;60.05;101137.97;4986195;28;6854;-75
2022/11/30 00:23:40;;;;;;;;;;;;;;;11.74;59.81;101136.25;4968413;28;7003;-77
2022/11/30 00:26:10;;;;;;;;;;;;;;;11.74;60.00;101128.56;4971122;28;7207;-77
2022/11/30 00:28:37;;;;;;;;;;;;;;;11.75;59.85;101132.88;4984020;28;6852;-77
2022/11/30 00:31:07;;;;;;;;;;;;;;;11.77;59.97;101136.41;4983260;28;6780;-76
2022/11/30 00:33:35;;;;;;;;;;;;;;;11.78;60.23;101135.66;4992739;28;7075;-75
2022/11/30 00:36:05;;;;;;;;;;;;;;;11.78;60.02;101133.06;4982763;28;8490;-77
2022/11/30 00:38:32;;;;;;;;;;;;;;;11.79;60.03;101133.94;4982720;28;7065;-77
2022/11/30 00:40:58;;;;;;;;;;;;;;;11.78;60.02;101133.06;4978945;28;6792;-77
2022/11/30 00:43:24;;;;;;;;;;;;;;;11.78;59.57;101135.66;4999592;28;6949;-77
2022/11/30 00:45:49;;;;;;;;;;;;;;;11.77;59.98;101131.28;4978857;28;6764;-77
2022/11/30 00:48:15;;;;;;;;;;;;;;;11.76;59.57;101137.22;4978776;28;9239;-77
2022/11/30 00:50:41;;;;;;;;;;;;;;;11.75;60.22;101140.59;4983214;28;6780;-77
2022/11/30 00:53:07;;;;;;;;;;;;;;;11.74;59.81;101143.97;4977629;28;6860;-77
2022/11/30 00:55:32;;;;;;;;;;;;;;;11.72;60.11;101143.00;4979319;28;6784;-77
2022/11/30 00:57:59;;;;;;;;;;;;;;;11.70;60.11;101142.03;4983548;28;6796;-77
2022/11/30 01:00:27;;;;;;;;;;;;;;;11.69;60.08;101141.94;4975913;28;6792;-75
2022/11/30 01:02:55;;;;;;;;;;;;;;;11.67;59.93;101136.72;4979463;28;7106;-77
2022/11/30 01:05:21;;;;;;;;;;;;;;;11.67;60.17;101144.41;4978214;28;7859;-75
2022/11/30 01:07:46;;;;;;;;;;;;;;;11.68;59.80;101138.47;4984621;28;6783;-77
2022/11/30 01:10:12;;;;;;;;;;;;;;;11.67;60.02;101137.63;4982310;28;6773;-77
2022/11/30 01:12:38;;;;;;;;;;;;;;;11.71;60.15;101137.78;4969250;28;6957;-77
2022/11/30 01:15:04;;;;;;;;;;;;;;;11.72;60.48;101137.88;4984115;28;6779;-77
2022/11/30 01:17:29;;;;;;;;;;;;;;;11.76;59.94;101141.50;4985009;28;6840;-77
2022/11/30 01:19:55;;;;;;;;;;;;;;;11.77;59.85;101144.13;4980755;28;7748;-77
2022/11/30 01:22:20;;;;;;;;;;;;;;;11.79;60.25;101152.81;4982925;28;6859;-77
2022/11/30 01:24:46;;;;;;;;;;;;;;;11.83;60.31;101148.75;4978597;28;6860;-77
2022/11/30 01:27:12;;;;;;;;;;;;;;;11.84;60.08;101145.38;4968486;28;6980;-77
2022/11/30 01:29:37;;;;;;;;;;;;;;;11.84;60.37;101147.94;4986590;28;6807;-76
2022/11/30 01:32:03;;;;;;;;;;;;;;;11.86;60.33;101148.00;4983663;28;6967;-77
2022/11/30 01:34:29;;;;;;;;;;;;;;;11.88;60.21;101146.38;4980069;28;6860;-78
2022/11/30 01:36:55;;;;;;;;;;;;;;;11.89;60.20;101146.50;4977686;28;6992;-77
2022/11/30 01:39:21;;;;;;;;;;;;;;;11.90;59.78;101145.69;4968142;28;6835;-77
2022/11/30 01:41:46;;;;;;;;;;;;;;;11.92;60.39;101149.22;4977005;28;7142;-77
2022/11/30 01:44:15;;;;;;;;;;;;;;;11.93;59.80;101151.00;4997516;28;6844;-77
2022/11/30 01:46:52;;;;;;;;;;;;;;;11.95;59.87;101151.06;4975455;28;7012;-78
2022/11/30 01:49:35;;;;;;;;;;;;;;;11.93;59.88;101151.00;4977800;28;7144;-78
2022/11/30 01:52:09;;;;;;;;;;;;;;;11.91;60.21;101154.28;4980379;28;7034;-77
2022/11/30 01:54:50;;;;;;;;;;;;;;;11.87;60.09;101152.34;4981027;28;7679;-76
2022/11/30 01:57:49;;;;;;;;;;;;;;;11.85;60.01;101153.94;4979696;28;6824;-77
2022/11/30 02:00:15;;;;;;;;;;;;;;;11.84;60.25;101154.75;4976636;28;6831;-77
2022/11/30 02:03:12;;;;;;;;;;;;;;;11.84;59.93;101162.44;4976824;28;6780;-74
2022/11/30 02:05:40;;;;;;;;;;;;;;;11.82;60.27;101162.34;4976012;28;8204;-77
2022/11/30 02:08:09;;;;;;;;;;;;;;;11.81;60.35;101166.63;4983116;28;6800;-77
2022/11/30 02:10:41;;;;;;;;;;;;;;;11.84;60.68;101162.44;4982186;28;6804;-76
2022/11/30 02:13:44;;;;;;;;;;;;;;;11.86;60.62;101165.97;4963238;28;7006;-75
2022/11/30 02:16:21;;;;;;;;;;;;;;;11.85;60.20;101161.66;4978990;28;7984;-77
2022/11/30 02:19:08;;;;;;;;;;;;;;;11.84;60.36;101158.22;4981608;28;7173;-77
2022/11/30 02:21:55;;;;;;;;;;;;;;;11.85;60.08;101161.66;4982100;28;7707;-77
2022/11/30 02:24:51;;;;;;;;;;;;;;;11.84;60.27;101154.75;4965921;28;7189;-75
2022/11/30 02:27:51;;;;;;;;;;;;;;;11.80;60.39;101154.59;4982044;28;6997;-75
2022/11/30 02:30:22;;;;;;;;;;;;;;;11.80;60.36;101152.03;4963716;28;7055;-77
2022/11/30 02:33:02;;;;;;;;;;;;;;;11.80;60.66;101154.59;4993487;28;6804;-76
2022/11/30 02:35:35;;;;;;;;;;;;;;;11.81;60.48;101152.88;4962895;28;7115;-76
2022/11/30 02:38:03;;;;;;;;;;;;;;;11.81;60.45;101146.06;4995666;28;6803;-77
2022/11/30 02:40:30;;;;;;;;;;;;;;;11.80;60.20;101144.31;4995940;28;6971;-75
2022/11/30 02:43:01;;;;;;;;;;;;;;;11.79;60.33;101152.81;4980523;28;6809;-77
2022/11/30 02:45:58;;;;;;;;;;;;;;;11.80;60.16;101153.69;4982862;28;7402;-76
2022/11/30 02:48:48;;;;;;;;;;;;;;;11.79;60.47;101157.06;4982415;28;7117;-76
2022/11/30 02:51:20;;;;;;;;;;;;;;;11.78;60.59;101151.06;4980563;28;8146;-76
2022/11/30 02:53:47;;;;;;;;;;;;;;;11.78;60.55;101156.19;4978745;28;6868;-76
2022/11/30 02:56:13;;;;;;;;;;;;;;;11.78;60.42;101151.06;4984083;28;6792;-77
2022/11/30 02:58:39;;;;;;;;;;;;;;;11.78;60.52;101151.06;4982638;28;6787;-77
2022/11/30 03:01:05;;;;;;;;;;;;;;;11.78;60.92;101150.16;4979961;28;6796;-75
2022/11/30 03:03:31;;;;;;;;;;;;;;;11.79;60.46;101151.91;4984787;28;6780;-77
2022/11/30 03:05:56;;;;;;;;;;;;;;;11.77;61.04;101149.25;4978420;28;6876;-78
2022/11/30 03:08:22;;;;;;;;;;;;;;;11.79;60.83;101152.81;4982686;28;6780;-77
2022/11/30 03:10:48;;;;;;;;;;;;;;;11.79;60.91;101147.69;4985557;28;8142;-77
2022/11/30 03:13:14;;;;;;;;;;;;;;;11.79;60.59;101132.28;4999119;28;6772;-77
2022/11/30 03:15:39;;;;;;;;;;;;;;;11.81;60.63;101145.19;4981776;28;6783;-77
2022/11/30 03:18:05;;;;;;;;;;;;;;;11.81;60.56;101135.81;4966480;28;8765;-77
2022/11/30 03:20:31;;;;;;;;;;;;;;;11.82;60.28;101146.94;4978740;28;7015;-76
2022/11/30 03:23:01;;;;;;;;;;;;;;;11.86;60.69;101155.72;4969748;28;7149;-77
2022/11/30 03:25:28;;;;;;;;;;;;;;;11.86;60.04;101150.56;4984903;28;6943;-77
2022/11/30 03:27:53;;;;;;;;;;;;;;;11.86;60.53;101148.00;4984020;28;6983;-77
2022/11/30 03:30:19;;;;;;;;;;;;;;;11.84;60.78;101147.94;4962356;28;8462;-77
2022/11/30 03:32:45;;;;;;;;;;;;;;;11.85;60.80;101149.69;4986106;28;7209;-77
2022/11/30 03:35:10;;;;;;;;;;;;;;;11.85;60.88;101148.81;4977835;28;6957;-74
2022/11/30 03:37:36;;;;;;;;;;;;;;;11.84;60.81;101149.59;4977870;28;6760;-74
2022/11/30 03:40:03;;;;;;;;;;;;;;;11.85;60.30;101151.38;4978808;28;7251;-74
2022/11/30 03:42:28;;;;;;;;;;;;;;;11.84;60.65;101159.88;4977923;28;7079;-74
2022/11/30 03:44:54;;;;;;;;;;;;;;;11.84;60.81;101165.03;4997057;28;6794;-73
2022/11/30 03:47:20;;;;;;;;;;;;;;;11.84;60.30;101159.88;4985108;28;6942;-73
2022/11/30 03:49:45;;;;;;;;;;;;;;;11.84;60.52;101165.03;4975741;28;6775;-72
2022/11/30 03:52:11;;;;;;;;;;;;;;;11.85;60.23;101159.97;4979621;28;7145;-72
2022/11/30 03:54:36;;;;;;;;;;;;;;;11.85;60.59;101156.50;4977794;28;6771;-73
2022/11/30 03:57:02;;;;;;;;;;;;;;;11.84;60.60;101155.66;4979232;28;6780;-72
2022/11/30 03:59:28;;;;;;;;;;;;;;;11.83;60.65;101151.31;4997930;28;6851;-75
2022/11/30 04:01:53;;;;;;;;;;;;;;;11.85;61.25;101164.22;4982257;28;7219;-72
2022/11/30 04:04:19;;;;;;;;;;;;;;;11.82;60.94;101157.22;4975055;28;7045;-73
2022/11/30 04:06:45;;;;;;;;;;;;;;;11.80;61.03;101159.72;4973795;28;7979;-74
2022/11/30 04:09:10;;;;;;;;;;;;;;;11.79;60.85;101160.53;4973508;28;7010;-72
2022/11/30 04:11:36;;;;;;;;;;;;;;;11.80;61.10;101163.97;4975531;28;7359;-75
2022/11/30 04:14:02;;;;;;;;;;;;;;;11.79;60.83;101159.63;4985084;28;8758;-74
2022/11/30 04:16:28;;;;;;;;;;;;;;;11.79;61.00;101163.09;4979488;28;6840;-72
2022/11/30 04:18:53;;;;;;;;;;;;;;;11.80;61.13;101169.09;4977273;28;6784;-72
2022/11/30 04:21:19;;;;;;;;;;;;;;;11.80;60.61;101166.53;4976443;28;6994;-72
2022/11/30 04:23:44;;;;;;;;;;;;;;;11.80;61.13;101167.44;4977763;28;6926;-74
2022/11/30 04:26:14;;;;;;;;;;;;;;;11.81;60.59;101165.72;4976259;28;7241;-73
2022/11/30 04:28:41;;;;;;;;;;;;;;;11.84;61.26;101170.16;4971970;28;6819;-73
2022/11/30 04:31:07;;;;;;;;;;;;;;;11.87;61.08;101170.31;4978069;28;6971;-74
2022/11/30 04:33:33;;;;;;;;;;;;;;;11.89;60.96;101171.31;4977471;28;8619;-74
2022/11/30 04:36:02;;;;;;;;;;;;;;;11.91;60.84;101173.13;4960195;28;7090;-72
2022/11/30 04:38:29;;;;;;;;;;;;;;;11.91;60.58;101170.56;4982693;28;8107;-72
2022/11/30 04:40:55;;;;;;;;;;;;;;;11.93;60.97;101176.69;4974254;28;7181;-71
2022/11/30 04:43:22;;;;;;;;;;;;;;;11.94;60.68;101175.00;4972074;28;7217;-73
2022/11/30 04:45:48;;;;;;;;;;;;;;;11.95;61.02;101175.09;4970726;28;6976;-73
2022/11/30 04:48:16;;;;;;;;;;;;;;;11.97;60.85;101177.72;4972536;28;6856;-75
2022/11/30 04:50:42;;;;;;;;;;;;;;;11.97;60.75;101180.28;4969836;28;6831;-73
2022/11/30 04:53:08;;;;;;;;;;;;;;;11.99;61.27;101183.84;4999852;28;6776;-74
2022/11/30 04:55:36;;;;;;;;;;;;;;;12.01;60.72;101181.34;4980364;28;6832;-73
2022/11/30 04:58:03;;;;;;;;;;;;;;;12.01;60.89;101174.53;4977175;28;6799;-73
2022/11/30 05:00:29;;;;;;;;;;;;;;;12.02;61.17;101183.13;4969418;28;6972;-73
2022/11/30 05:02:55;;;;;;;;;;;;;;;12.02;60.45;101181.47;4988998;28;6845;-73
2022/11/30 05:05:21;;;;;;;;;;;;;;;12.02;60.48;101184.03;4977680;28;7099;-73
2022/11/30 05:07:56;;;;;;;;;;;;;;;12.01;61.11;101183.91;4973636;28;6839;-73
2022/11/30 05:10:21;;;;;;;;;;;;;;;12.01;60.76;101182.25;4979831;28;6977;-74
2022/11/30 05:12:49;;;;;;;;;;;;;;;12.01;60.88;101187.38;4973814;28;6776;-72
2022/11/30 05:15:15;;;;;;;;;;;;;;;12.01;61.19;101187.38;4974307;28;6840;-74
2022/11/30 05:17:40;;;;;;;;;;;;;;;11.99;61.13;101183.84;4983657;28;6999;-73
2022/11/30 05:20:06;;;;;;;;;;;;;;;11.99;60.99;101183.84;4976799;28;6784;-73
2022/11/30 05:22:34;;;;;;;;;;;;;;;11.99;61.13;101182.97;4994988;28;6966;-73
2022/11/30 05:24:59;;;;;;;;;;;;;;;11.97;60.86;101179.44;4979748;28;6807;-72
2022/11/30 05:27:25;;;;;;;;;;;;;;;11.96;61.02;101181.09;4973380;28;6772;-73
2022/11/30 05:29:51;;;;;;;;;;;;;;;11.92;61.07;101185.19;4977882;28;6935;-74
2022/11/30 05:32:17;;;;;;;;;;;;;;;11.87;60.87;101184.06;4981958;28;6776;-73
2022/11/30 05:34:43;;;;;;;;;;;;;;;11.85;60.39;101187.34;4975395;28;6868;-74
2022/11/30 05:37:08;;;;;;;;;;;;;;;11.82;60.79;101182.91;4977755;28;6756;-72
2022/11/30 05:39:34;;;;;;;;;;;;;;;11.81;60.63;101184.59;4979904;28;6906;-73
2022/11/30 05:42:00;;;;;;;;;;;;;;;11.80;61.10;101185.41;4974580;28;6772;-73
2022/11/30 05:44:25;;;;;;;;;;;;;;;11.80;60.78;101195.69;4961489;28;7408;-74
2022/11/30 05:46:51;;;;;;;;;;;;;;;11.81;60.90;101193.97;4982433;28;6776;-73
2022/11/30 05:49:16;;;;;;;;;;;;;;;11.81;60.67;101193.97;4976446;28;6772;-72
2022/11/30 05:51:42;;;;;;;;;;;;;;;11.79;60.31;101200.72;4978578;28;8342;-73
2022/11/30 05:54:08;;;;;;;;;;;;;;;11.78;60.66;101204.09;4977226;28;6776;-72
2022/11/30 05:56:33;;;;;;;;;;;;;;;11.78;60.35;101201.53;4975489;28;7305;-73
2022/11/30 05:58:59;;;;;;;;;;;;;;;11.76;60.83;101198.84;4977104;28;6768;-71
2022/11/30 06:01:27;;;;;;;;;;;;;;;11.76;60.53;101206.56;4985191;28;8437;-73
2022/11/30 06:03:54;;;;;;;;;;;;;;;11.74;60.91;101210.72;4987028;28;7102;-72
2022/11/30 06:06:21;;;;;;;;;;;;;;;11.72;60.50;101212.34;4999124;28;6979;-73
2022/11/30 06:08:48;;;;;;;;;;;;;;;11.70;60.87;101216.50;4978137;28;8296;-73
2022/11/30 06:11:14;;;;;;;;;;;;;;;11.69;60.82;101217.31;4978592;28;6991;-74
2022/11/30 06:13:40;;;;;;;;;;;;;;;11.66;60.91;101227.38;4983529;28;8028;-71
2022/11/30 06:16:07;;;;;;;;;;;;;;;11.64;60.45;101226.44;4988725;28;7176;-72
2022/11/30 06:18:33;;;;;;;;;;;;;;;11.62;60.57;101221.19;4967121;28;7170;-72
2022/11/30 06:21:01;;;;;;;;;;;;;;;11.60;60.92;101227.06;4981732;28;6922;-72
2022/11/30 06:23:27;;;;;;;;;;;;;;;11.59;60.90;101223.59;4984646;28;6808;-74
2022/11/30 06:25:53;;;;;;;;;;;;;;;11.58;60.38;101223.50;4981781;28;6839;-73
2022/11/30 06:28:19;;;;;;;;;;;;;;;11.58;60.64;101226.97;4978006;28;8457;-73
2022/11/30 06:30:44;;;;;;;;;;;;;;;11.56;60.48;101228.56;4985385;28;6950;-72
2022/11/30 06:33:10;;;;;;;;;;;;;;;11.55;60.56;101229.38;4980738;28;6768;-72
2022/11/30 06:35:35;;;;;;;;;;;;;;;11.55;60.91;101229.38;4981680;28;7075;-71
2022/11/30 06:38:01;;;;;;;;;;;;;;;11.53;60.51;101225.81;4978030;28;6879;-72
2022/11/30 06:40:27;;;;;;;;;;;;;;;11.52;60.81;101224.94;4987043;28;6780;-72
2022/11/30 06:42:53;;;;;;;;;;;;;;;11.51;60.64;101227.41;4980850;28;6930;-72
2022/11/30 06:45:19;;;;;;;;;;;;;;;11.54;61.05;101230.16;4999758;28;6971;-72
2022/11/30 06:47:45;;;;;;;;;;;;;;;11.60;60.85;101232.19;4981373;28;7003;-72
2022/11/30 06:50:12;;;;;;;;;;;;;;;11.64;60.32;101239.25;5000337;28;6780;-71
2022/11/30 06:52:38;;;;;;;;;;;;;;;11.66;60.53;101240.22;4980562;28;6792;-72
2022/11/30 06:55:04;;;;;;;;;;;;;;;11.67;60.04;101237.75;4978265;28;6915;-73
2022/11/30 06:57:30;;;;;;;;;;;;;;;11.67;60.01;101231.72;4975045;28;6804;-71
2022/11/30 06:59:56;;;;;;;;;;;;;;;11.67;60.14;101240.31;4980103;28;7174;-71
2022/11/30 07:02:23;;;;;;;;;;;;;;;11.68;60.10;101241.19;4981404;28;6796;-71
2022/11/30 07:04:49;;;;;;;;;;;;;;;11.71;60.13;101249.09;4962458;28;8480;-71
2022/11/30 07:07:15;;;;;;;;;;;;;;;11.72;60.24;101247.38;4976344;28;6783;-73
2022/11/30 07:09:41;;;;;;;;;;;;;;;11.73;60.42;101241.44;4975727;28;6780;-72
2022/11/30 07:12:07;;;;;;;;;;;;;;;11.73;60.49;101241.44;4981831;28;6871;-71
2022/11/30 07:14:32;;;;;;;;;;;;;;;11.75;60.31;101245.03;5002501;28;7074;-73
2022/11/30 07:16:58;;;;;;;;;;;;;;;11.75;60.09;101245.88;5001820;28;7160;-71
2022/11/30 07:19:24;;;;;;;;;;;;;;;11.79;59.79;101250.41;4984632;28;6800;-73
2022/11/30 07:21:49;;;;;;;;;;;;;;;11.79;59.81;101245.28;4981643;28;7728;-71
2022/11/30 07:27:02;;;;;;;;;;;;;;;11.80;60.05;101259.88;4977959;28;6792;-73
2022/11/30 07:29:28;;;;;;;;;;;;;;;11.81;59.91;101259.09;4974643;28;6864;-72
2022/11/30 07:31:54;;;;;;;;;;;;;;;11.84;59.56;101260.06;4977950;28;7281;-73
2022/11/30 07:34:21;;;;;;;;;;;;;;;11.85;59.55;101269.53;4978264;28;6795;-71
2022/11/30 07:36:47;;;;;;;;;;;;;;;11.86;59.63;101268.72;4983156;28;8653;-71
2022/11/30 07:39:14;;;;;;;;;;;;;;;11.87;59.56;101275.63;4986628;28;8428;-71
2022/11/30 07:41:41;;;;;;;;;;;;;;;11.88;59.79;101275.72;4973915;28;7030;-73
2022/11/30 07:44:07;;;;;;;;;;;;;;;11.89;59.67;101281.75;5000175;28;6930;-73
2022/11/30 07:46:35;;;;;;;;;;;;;;;11.90;59.89;101280.97;4962635;28;8444;-74
2022/11/30 07:49:03;;;;;;;;;;;;;;;11.89;59.41;101281.75;4984916;28;8538;-72
2022/11/30 07:51:29;;;;;;;;;;;;;;;11.89;59.15;101281.75;4980202;28;6816;-72
2022/11/30 07:53:56;;;;;;;;;;;;;;;11.89;59.28;101287.78;4978051;28;6800;-72
2022/11/30 07:56:22;;;;;;;;;;;;;;;11.91;59.84;101282.72;4966709;28;6998;-73
2022/11/30 07:58:54;;;;;;;;;;;;;;;11.91;59.30;101281.03;4963589;28;8248;-71
2022/11/30 08:01:23;;;;;;;;;;;;;;;11.93;59.65;101281.13;4982687;28;6800;-72
2022/11/30 08:03:50;;;;;;;;;;;;;;;11.93;59.15;101286.25;4981609;28;7256;-73
2022/11/30 08:06:19;;;;;;;;;;;;;;;11.93;59.06;101294.88;4979821;28;6999;-71
2022/11/30 08:08:48;;;;;;;;;;;;;;;11.92;59.25;101285.38;4981608;28;6796;-72
2022/11/30 08:11:17;;;;;;;;;;;;;;;11.92;58.98;101289.63;4982409;28;6788;-72
2022/11/30 08:13:43;;;;;;;;;;;;;;;11.91;59.21;101296.44;4976517;28;7267;-72
2022/11/30 08:16:12;;;;;;;;;;;;;;;11.92;59.74;101292.19;4967100;28;8483;-71
2022/11/30 08:18:39;;;;;;;;;;;;;;;11.93;59.54;101293.97;4964472;28;8655;-72
2022/11/30 08:21:10;;;;;;;;;;;;;;;11.95;59.68;101297.50;4965934;28;7344;-73
2022/11/30 08:23:48;;;;;;;;;;;;;;;11.97;59.37;101298.47;4979418;28;6892;-73
2022/11/30 08:26:20;;;;;;;;;;;;;;;11.98;59.42;101300.28;4973482;28;6816;-72
2022/11/30 08:28:48;;;;;;;;;;;;;;;11.98;59.15;101300.28;4991855;28;8634;-72
2022/11/30 08:31:27;;;;;;;;;;;;;;;11.95;58.93;101298.41;4978942;28;6804;-73
2022/11/30 08:33:55;;;;;;;;;;;;;;;11.92;58.47;101307.63;4976182;28;6995;-71
2022/11/30 08:36:23;;;;;;;;;;;;;;;11.88;58.61;101310.78;4988658;28;6807;-70
2022/11/30 08:38:49;;;;;;;;;;;;;;;11.83;58.80;101310.56;4980252;28;6923;-73
2022/11/30 08:41:21;;;;;;;;;;;;;;;11.79;58.61;101314.63;4979458;28;6775;-71
2022/11/30 08:43:49;;;;;;;;;;;;;;;11.76;58.74;101319.56;4962051;28;8596;-73
2022/11/30 08:46:17;;;;;;;;;;;;;;;11.74;58.75;101312.59;4978714;28;6792;-72
2022/11/30 08:48:43;;;;;;;;;;;;;;;11.72;58.18;101309.03;4993494;28;6784;-71
2022/11/30 08:51:13;;;;;;;;;;;;;;;11.71;58.75;101312.41;4982740;28;6919;-70
2022/11/30 08:53:39;;;;;;;;;;;;;;;11.71;59.25;101312.41;4966834;28;8548;-72
2022/11/30 08:56:12;;;;;;;;;;;;;;;11.72;59.12;101315.06;4966255;28;7397;-71
2022/11/30 08:58:39;;;;;;;;;;;;;;;11.73;59.18;101310.78;4977344;28;6800;-72
2022/11/30 09:01:20;;;;;;;;;;;;;;;11.75;58.86;101314.38;4975476;28;6804;-72
2022/11/30 09:03:48;;;;;;;;;;;;;;;11.76;58.88;101311.84;4973077;28;8426;-71
2022/11/30 09:06:20;;;;;;;;;;;;;;;11.81;59.00;101309.56;4976279;28;7000;-73
2022/11/30 09:08:49;;;;;;;;;;;;;;;11.85;59.50;101318.34;4972805;28;6792;-73
2022/11/30 09:11:28;;;;;;;;;;;;;;;11.89;59.08;101326.31;4979460;28;6887;-71
2022/11/30 09:13:57;;;;;;;;;;;;;;;11.94;59.09;101326.56;4977499;28;6808;-71
2022/11/30 09:16:24;;;;;;;;;;;;;;;11.98;59.34;101331.09;4991736;28;7331;-70
2022/11/30 09:18:51;;;;;;;;;;;;;;;12.03;59.28;101327.13;4978028;28;6792;-71
2022/11/30 09:21:21;;;;;;;;;;;;;;;12.11;59.55;101329.25;5000036;28;6823;-72
2022/11/30 09:23:49;;;;;;;;;;;;;;;12.16;59.56;101335.50;4967220;28;8535;-71
2022/11/30 09:26:18;;;;;;;;;;;;;;;12.20;59.14;101340.06;4979187;28;7115;-71
2022/11/30 09:28:46;;;;;;;;;;;;;;;12.25;59.54;101337.75;4978728;28;6788;-71
2022/11/30 09:31:18;;;;;;;;;;;;;;;12.26;59.46;101342.94;4981217;28;6796;-72
2022/11/30 09:33:45;;;;;;;;;;;;;;;12.25;58.97;101338.59;4981156;28;6850;-72
2022/11/30 09:36:14;;;;;;;;;;;;;;;12.23;58.54;101340.22;4967628;28;8572;-70
2022/11/30 09:38:41;;;;;;;;;;;;;;;12.23;59.24;101340.22;4977721;28;6808;-72
2022/11/30 09:42:05;;;;;;;;;;;;;;;12.25;59.11;101337.75;4977568;28;6864;-71
2022/11/30 09:45:05;;;;;;;;;;;;;;;12.26;59.27;101340.38;4978549;28;6823;-71
2022/11/30 09:47:36;;;;;;;;;;;;;;;12.26;59.18;101342.94;4983484;28;6980;-71
2022/11/30 09:50:12;;;;;;;;;;;;;;;12.28;58.75;101348.19;4983554;28;6784;-70
2022/11/30 09:52:45;;;;;;;;;;;;;;;12.27;59.10;101336.13;4986700;28;6784;-71
2022/11/30 09:55:22;;;;;;;;;;;;;;;12.27;58.42;101342.19;4988182;28;6824;-71
2022/11/30 09:57:54;;;;;;;;;;;;;;;12.25;58.18;101340.31;4965761;28;8304;-70
2022/11/30 10:00:23;;;;;;;;;;;;;;;12.21;58.38;101341.81;4974419;28;6816;-70
2022/11/30 10:02:52;;;;;;;;;;;;;;;12.16;58.64;101340.66;4977882;28;6943;-72
2022/11/30 10:05:26;;;;;;;;;;;;;;;12.14;58.72;101345.72;4983205;28;6796;-72
2022/11/30 10:08:30;;;;;;;;;;;;;;;12.15;58.75;101341.47;4985474;28;6788;-72
2022/11/30 10:11:12;;;;;;;;;;;;;;;12.10;58.68;101337.75;4980694;28;6824;-72
2022/11/30 10:14:09;;;;;;;;;;;;;;;12.06;58.48;101336.69;4977447;28;8985;-71
2022/11/30 10:17:11;;;;;;;;;;;;;;;12.02;58.71;101340.78;4986595;28;6803;-71
2022/11/30 10:20:05;;;;;;;;;;;;;;;11.99;58.13;101340.56;4981822;28;6992;-71
2022/11/30 10:22:59;;;;;;;;;;;;;;;12.00;58.27;101339.78;4979100;28;6895;-71
2022/11/30 10:25:57;;;;;;;;;;;;;;;12.01;58.63;101338.97;4978453;28;6824;-73
2022/11/30 10:28:50;;;;;;;;;;;;;;;12.02;58.02;101339.84;4980256;28;6827;-70
2022/11/30 10:31:37;;;;;;;;;;;;;;;12.01;57.98;101336.41;4981559;28;6804;-72
2022/11/30 10:34:25;;;;;;;;;;;;;;;12.02;58.04;101332.13;4982233;28;6800;-70
2022/11/30 10:37:17;;;;;;;;;;;;;;;12.00;58.18;101326.94;4983045;28;7928;-71
2022/11/30 10:40:00;;;;;;;;;;;;;;;11.98;57.93;101328.53;4977081;28;6808;-71
2022/11/30 10:42:46;;;;;;;;;;;;;;;11.97;57.85;101326.72;4983709;28;6808;-72
2022/11/30 10:45:19;;;;;;;;;;;;;;;11.97;58.12;101331.00;4980497;28;7991;-71
2022/11/30 10:48:02;;;;;;;;;;;;;;;11.98;58.35;101327.63;4982462;28;6812;-71
2022/11/30 10:50:29;;;;;;;;;;;;;;;11.98;57.79;101322.50;4967022;28;8493;-71
2022/11/30 10:52:59;;;;;;;;;;;;;;;11.98;58.21;101318.25;4977437;28;6776;-70
2022/11/30 10:55:44;;;;;;;;;;;;;;;12.00;57.83;101316.66;4986457;28;6796;-71
2022/11/30 10:58:42;;;;;;;;;;;;;;;11.99;58.21;101317.44;4983894;28;7007;-71
2022/11/30 11:01:28;;;;;;;;;;;;;;;12.02;57.61;101320.22;4978109;28;6804;-71
2022/11/30 11:04:16;;;;;;;;;;;;;;;12.07;57.55;101318.81;4968078;28;8526;-73
2022/11/30 11:06:53;;;;;;;;;;;;;;;12.10;58.04;101318.06;4982129;28;6788;-71
2022/11/30 11:09:45;;;;;;;;;;;;;;;12.14;57.76;101321.69;4972529;28;6812;-73
2022/11/30 11:12:29;;;;;;;;;;;;;;;12.16;57.90;101317.53;4962330;28;10802;-72
2022/11/30 11:15:23;;;;;;;;;;;;;;;12.19;57.45;101310.00;4979244;28;10244;-71
2022/11/30 11:17:51;;;;;;;;;;;;;;;12.25;57.59;101310.34;4983135;28;6828;-70
2022/11/30 11:20:34;;;;;;;;;;;;;;;12.29;57.69;101307.16;4980417;28;6915;-71
2022/11/30 11:23:02;;;;;;;;;;;;;;;12.34;57.28;101308.28;4978601;28;6788;-70
2022/11/30 11:25:35;;;;;;;;;;;;;;;12.39;57.21;101312.81;4977772;28;7941;-70
2022/11/30 11:28:15;;;;;;;;;;;;;;;12.43;57.06;101314.72;4977673;28;7114;-70
2022/11/30 11:30:41;;;;;;;;;;;;;;;12.48;57.52;101310.75;4981912;28;6816;-71
2022/11/30 11:33:12;;;;;;;;;;;;;;;12.55;57.66;101312.81;4978645;28;7781;-71
2022/11/30 11:35:48;;;;;;;;;;;;;;;12.62;56.95;101316.63;4970659;28;6783;-70
2022/11/30 11:38:39;;;;;;;;;;;;;;;12.70;57.59;101314.47;4976520;28;6812;-70
2022/11/30 11:41:18;;;;;;;;;;;;;;;12.76;56.77;101315.69;4981766;28;6796;-70
2022/11/30 11:44:08;;;;;;;;;;;;;;;12.84;57.00;101321.22;4978369;28;6800;-71
2022/11/30 11:46:57;;;;;;;;;;;;;;;12.88;56.51;101322.28;4974718;28;7171;-72
2022/11/30 11:49:28;;;;;;;;;;;;;;;12.90;56.32;101321.56;4977116;28;6800;-71
2022/11/30 11:52:05;;;;;;;;;;;;;;;12.92;56.71;101321.66;4994252;28;6868;-72
2022/11/30 11:54:48;;;;;;;;;;;;;;;12.88;56.99;101323.19;4980269;28;6796;-70
2022/11/30 11:57:18;;;;;;;;;;;;;;;12.84;56.70;101323.78;4974791;28;6815;-71
2022/11/30 12:00:04;;;;;;;;;;;;;;;12.83;56.62;101314.31;4976573;28;6875;-70
2022/11/30 12:02:56;;;;;;;;;;;;;;;12.85;56.60;101317.88;4983192;28;6812;-71
2022/11/30 12:05:32;;;;;;;;;;;;;;;12.88;56.68;101319.72;4975910;28;6928;-71
2022/11/30 12:08:27;;;;;;;;;;;;;;;12.89;56.40;101317.22;4979252;28;7152;-73
2022/11/30 12:11:25;;;;;;;;;;;;;;;12.90;56.06;101316.41;4980277;28;6879;-71
2022/11/30 12:13:52;;;;;;;;;;;;;;;12.93;56.67;101315.69;4982646;28;7193;-71
2022/11/30 12:16:35;;;;;;;;;;;;;;;12.91;55.71;101318.19;4983888;28;8716;-71
2022/11/30 12:19:22;;;;;;;;;;;;;;;12.91;56.19;101320.75;4969957;28;8514;-71
2022/11/30 12:22:00;;;;;;;;;;;;;;;12.90;56.68;101313.84;4984705;28;6931;-70
2022/11/30 12:24:46;;;;;;;;;;;;;;;12.89;55.68;101314.66;4978410;28;6823;-71
2022/11/30 12:27:41;;;;;;;;;;;;;;;12.91;55.80;101315.59;4976623;28;6972;-71
2022/11/30 12:30:34;;;;;;;;;;;;;;;12.89;56.16;101309.50;5001030;28;8572;-71
2022/11/30 12:33:47;;;;;;;;;;;;;;;12.86;56.28;101306.78;4977032;28;11260;-70
2022/11/30 12:36:47;;;;;;;;;;;;;;;12.78;56.00;101310.63;4976921;28;6975;-72
2022/11/30 12:39:43;;;;;;;;;;;;;;;12.71;56.05;101304.28;4985220;28;6915;-70
2022/11/30 12:43:06;;;;;;;;;;;;;;;12.68;55.95;101309.22;4974653;28;6999;-70
2022/11/30 12:45:41;;;;;;;;;;;;;;;12.63;56.16;101311.56;4967414;28;7089;-70
2022/11/30 12:48:25;;;;;;;;;;;;;;;12.66;55.79;101309.97;4957664;28;8540;-72
2022/11/30 12:51:36;;;;;;;;;;;;;;;12.66;56.42;101316.00;4974026;28;6804;-72
2022/11/30 12:54:44;;;;;;;;;;;;;;;12.64;55.93;101320.16;4980762;28;6824;-72
2022/11/30 12:57:25;;;;;;;;;;;;;;;12.64;56.04;101320.16;4977396;28;7338;-71
2022/11/30 13:00:11;;;;;;;;;;;;;;;12.66;55.93;101316.00;4977131;28;6819;-71
2022/11/30 13:03:05;;;;;;;;;;;;;;;12.65;56.27;101314.22;4979991;28;11846;-71
2022/11/30 13:05:47;;;;;;;;;;;;;;;12.64;56.55;101309.88;4996240;28;7046;-70
2022/11/30 13:08:49;;;;;;;;;;;;;;;12.64;56.45;101313.31;4976324;28;6808;-71
2022/11/30 13:11:36;;;;;;;;;;;;;;;12.67;56.71;101311.75;4984063;28;6987;-73
2022/11/30 13:14:11;;;;;;;;;;;;;;;12.70;55.93;101304.19;4963961;28;7298;-72
2022/11/30 13:16:39;;;;;;;;;;;;;;;12.75;56.19;101305.31;4979415;28;6888;-72